Time;durP1;ratioP1;P1;durP2;ratioP2;P2;SDS_P1;SDS_P2;PMS_P1;PMS_P2;Temp;Humidity;BMP_temperature;BMP_pressure;BME280_temperature;BME280_humidity;BME280_pressure;Samples;Min_cycle;Max_cycle;Signal;HPM_P1;HPM_P2
2022/04/09 00:00:07;;;;;;;2.33;0.43;;;0.80;99.90;;;;;;5102695;28;20205;-83
2022/04/09 00:03:26;;;;;;;0.30;0.30;;;0.80;99.90;;;;;;5060996;28;20228;-82
2022/04/09 00:06:04;;;;;;;0.50;0.50;;;0.80;99.90;;;;;;5058008;28;20226;-82
2022/04/09 00:08:55;;;;;;;0.38;0.38;;;0.80;99.90;;;;;;5066565;28;20219;-83
2022/04/09 00:11:32;;;;;;;0.30;0.30;;;0.80;99.90;;;;;;5090380;28;20200;-83
2022/04/09 00:14:23;;;;;;;0.40;0.40;;;0.80;99.90;;;;;;5089492;28;20200;-83
2022/04/09 00:16:53;;;;;;;0.30;0.30;;;0.80;99.90;;;;;;5102167;28;20769;-83
2022/04/09 00:19:24;;;;;;;0.50;0.50;;;0.90;99.90;;;;;;5092751;28;20201;-84
2022/04/09 00:21:58;;;;;;;0.40;0.40;;;0.90;99.90;;;;;;5097320;28;20204;-84
2022/04/09 00:24:39;;;;;;;0.57;0.57;;;0.90;99.90;;;;;;5087807;28;20223;-83
2022/04/09 00:27:21;;;;;;;0.52;0.52;;;0.90;99.90;;;;;;5081271;28;20291;-83
2022/04/09 00:33:14;;;;;;;1.10;1.10;;;0.90;99.90;;;;;;5096044;28;20192;-84
2022/04/09 00:35:54;;;;;;;1.02;1.00;;;1.00;99.90;;;;;;5061160;28;20225;-83
2022/04/09 00:39:06;;;;;;;1.33;1.23;;;1.00;99.90;;;;;;5063065;28;20272;-84
2022/04/09 00:56:59;;;;;;;0.70;0.70;;;0.90;99.90;;;;;;5060607;28;20269;-82
2022/04/09 01:00:09;;;;;;;0.60;0.60;;;0.90;99.90;;;;;;5079229;28;20208;-84
2022/04/09 01:02:57;;;;;;;0.60;0.60;;;0.90;99.90;;;;;;5079384;28;20246;-82
2022/04/09 01:05:37;;;;;;;0.50;0.50;;;0.90;99.90;;;;;;5082125;28;20213;-82
2022/04/09 01:08:19;;;;;;;0.88;0.80;;;0.90;99.90;;;;;;5081954;28;20205;-81
2022/04/09 01:16:44;;;;;;;0.93;0.93;;;1.00;99.90;;;;;;5078510;28;20311;-83
2022/04/09 01:19:44;;;;;;;1.00;1.00;;;1.10;99.90;;;;;;5079007;28;20209;-83
2022/04/09 01:25:12;;;;;;;1.30;1.00;;;1.10;99.90;;;;;;5075298;28;20228;-83
2022/04/09 01:30:27;;;;;;;1.67;1.58;;;1.10;99.90;;;;;;5075713;28;20287;-83
2022/04/09 01:33:02;;;;;;;1.95;1.85;;;1.10;99.90;;;;;;5074790;28;20204;-83
2022/04/09 01:35:33;;;;;;;1.90;1.80;;;1.10;99.90;;;;;;5074978;28;20224;-83
2022/04/09 01:38:10;;;;;;;2.10;2.00;;;1.10;99.90;;;;;;5074383;28;20209;-82
2022/04/09 01:43:24;;;;;;;3.10;1.95;;;1.10;99.90;;;;;;5073889;28;20197;-83
2022/04/09 01:45:51;;;;;;;2.33;2.13;;;1.10;99.90;;;;;;5073697;28;20231;-83
2022/04/09 01:48:18;;;;;;;1.90;1.80;;;1.10;99.90;;;;;;5074364;28;20211;-82
2022/04/09 01:50:44;;;;;;;1.73;1.63;;;1.20;99.90;;;;;;5073913;28;20209;-82
2022/04/09 01:53:13;;;;;;;3.22;3.03;;;1.10;99.90;;;;;;5074108;28;20208;-83
2022/04/09 01:55:40;;;;;;;4.70;2.65;;;1.20;99.90;;;;;;5073994;28;20221;-82
2022/04/09 01:58:07;;;;;;;3.30;2.75;;;1.10;99.90;;;;;;5074950;28;20197;-82
2022/04/09 02:00:35;;;;;;;2.80;2.60;;;1.10;99.90;;;;;;5073177;28;20197;-82
2022/04/09 02:03:13;;;;;;;3.95;3.42;;;1.10;99.90;;;;;;5073548;28;20666;-83
2022/04/09 02:05:41;;;;;;;4.68;4.28;;;1.10;99.90;;;;;;5074478;28;20319;-83
2022/04/09 02:08:20;;;;;;;4.45;3.95;;;1.00;99.90;;;;;;5076668;28;20213;-83
2022/04/09 02:10:48;;;;;;;4.78;4.35;;;1.10;99.90;;;;;;5077836;28;20225;-82
2022/04/09 02:13:25;;;;;;;6.20;5.63;;;1.10;99.90;;;;;;5078567;28;20230;-82
2022/04/09 02:15:55;;;;;;;7.80;5.43;;;1.10;99.90;;;;;;5079475;28;20645;-83
2022/04/09 02:18:29;;;;;;;5.38;4.82;;;1.20;99.90;;;;;;5077612;28;20208;-83
2022/04/09 02:21:17;;;;;;;4.35;3.85;;;1.20;99.90;;;;;;5071357;28;20246;-83
2022/04/09 02:24:09;;;;;;;6.53;5.05;;;1.20;99.90;;;;;;5077791;28;20225;-82
2022/04/09 02:27:02;;;;;;;5.75;3.78;;;1.20;99.90;;;;;;5077095;28;20225;-83
2022/04/09 02:29:48;;;;;;;4.13;3.83;;;1.20;99.90;;;;;;5076855;28;20247;-83
2022/04/09 02:32:18;;;;;;;6.50;4.07;;;1.30;99.90;;;;;;5076677;28;20212;-83
2022/04/09 02:38:30;;;;;;;4.50;3.85;;;1.30;99.90;;;;;;5076052;28;20222;-83
2022/04/09 02:41:21;;;;;;;5.40;3.85;;;1.20;99.90;;;;;;5076099;28;20205;-83
2022/04/09 02:43:50;;;;;;;5.57;3.33;;;1.20;99.90;;;;;;5076070;28;20223;-83
2022/04/09 02:46:21;;;;;;;4.50;3.85;;;1.20;99.90;;;;;;5074491;28;20224;-82
2022/04/09 02:49:03;;;;;;;5.20;4.38;;;1.20;99.90;;;;;;5075695;28;20232;-82
2022/04/09 02:51:56;;;;;;;5.90;4.85;;;1.20;99.90;;;;;;5075255;28;20209;-82
2022/04/09 02:54:24;;;;;;;6.78;4.68;;;1.30;99.90;;;;;;5076204;28;20212;-82
2022/04/09 02:56:53;;;;;;;4.95;4.28;;;1.20;99.90;;;;;;5075835;28;20225;-82
2022/04/09 02:59:20;;;;;;;5.78;4.40;;;1.20;99.90;;;;;;5075688;28;20216;-82
2022/04/09 03:01:47;;;;;;;5.88;4.40;;;1.20;99.90;;;;;;5077055;28;20209;-82
2022/04/09 03:04:16;;;;;;;4.15;3.58;;;1.20;99.90;;;;;;5076320;28;20217;-82
2022/04/09 03:06:43;;;;;;;4.07;3.40;;;1.20;99.90;;;;;;5076645;28;20594;-82
2022/04/09 03:09:09;;;;;;;4.75;3.15;;;1.20;99.90;;;;;;5076544;28;20254;-82
2022/04/09 03:11:37;;;;;;;4.60;4.10;;;1.30;99.90;;;;;;5075976;28;20205;-82
2022/04/09 03:14:06;;;;;;;3.80;2.92;;;1.30;99.90;;;;;;5076649;28;20205;-79
2022/04/09 03:16:33;;;;;;;3.45;2.83;;;1.30;99.90;;;;;;5076453;28;20225;-81
2022/04/09 03:18:59;;;;;;;5.15;4.50;;;1.30;99.90;;;;;;5076633;28;20303;-82
2022/04/09 03:21:26;;;;;;;3.65;3.30;;;1.30;99.90;;;;;;5076641;28;20253;-82
2022/04/09 03:23:53;;;;;;;4.75;4.30;;;1.40;99.90;;;;;;5076487;28;20587;-81
2022/04/09 03:26:20;;;;;;;4.10;3.67;;;1.40;99.90;;;;;;5076302;28;20594;-81
2022/04/09 03:28:46;;;;;;;5.82;4.38;;;1.40;99.90;;;;;;5076333;28;20197;-82
2022/04/09 03:31:14;;;;;;;4.20;3.80;;;1.50;99.90;;;;;;5075816;28;20205;-82
2022/04/09 03:33:41;;;;;;;5.82;5.00;;;1.50;99.90;;;;;;5075943;28;20201;-81
2022/04/09 03:36:08;;;;;;;4.45;4.05;;;1.50;99.90;;;;;;5111359;22;20249;-83
2022/04/09 03:38:35;;;;;;;7.50;5.15;;;1.50;99.90;;;;;;5097695;28;20200;-83
2022/04/09 03:41:01;;;;;;;5.97;4.93;;;1.50;99.90;;;;;;5097812;28;20204;-82
2022/04/09 03:43:29;;;;;;;6.70;4.13;;;1.50;99.90;;;;;;5097797;28;20211;-82
2022/04/09 03:45:55;;;;;;;4.07;3.75;;;1.50;99.90;;;;;;5097670;28;20256;-82
2022/04/09 03:48:23;;;;;;;6.20;4.47;;;1.60;99.90;;;;;;5098025;28;20211;-83
2022/04/09 03:50:50;;;;;;;5.93;4.65;;;1.60;99.90;;;;;;5098125;28;20223;-84
2022/04/09 03:53:19;;;;;;;7.35;4.88;;;1.60;99.90;;;;;;5097664;28;20211;-84
2022/04/09 03:55:46;;;;;;;11.02;7.68;;;1.60;99.90;;;;;;5097505;28;20636;-84
2022/04/09 03:58:14;;;;;;;7.53;6.15;;;1.60;99.90;;;;;;5097109;28;20291;-84
2022/04/09 04:00:41;;;;;;;9.82;7.35;;;1.70;99.90;;;;;;5096514;28;20215;-85
2022/04/09 04:03:09;;;;;;;11.63;7.80;;;1.70;99.90;;;;;;5096884;28;20208;-84
2022/04/09 04:05:37;;;;;;;11.80;7.50;;;1.70;99.90;;;;;;5096458;28;20224;-84
2022/04/09 04:08:05;;;;;;;14.25;9.80;;;1.70;99.90;;;;;;5096068;28;20205;-83
2022/04/09 04:10:32;;;;;;;11.38;8.43;;;1.70;99.90;;;;;;5096690;28;20200;-85
2022/04/09 04:12:59;;;;;;;12.60;9.60;;;1.80;99.90;;;;;;5095988;28;20250;-84
2022/04/09 04:15:25;;;;;;;15.85;10.15;;;1.80;99.90;;;;;;5096472;28;20216;-84
2022/04/09 04:17:52;;;;;;;15.07;10.48;;;1.80;99.90;;;;;;5096358;28;20702;-84
2022/04/09 04:20:19;;;;;;;15.15;11.75;;;1.80;99.90;;;;;;5097248;28;20211;-84
2022/04/09 04:22:47;;;;;;;17.13;11.35;;;1.80;99.90;;;;;;5096852;28;20211;-85
2022/04/09 04:25:14;;;;;;;14.70;12.45;;;1.80;99.90;;;;;;5096288;28;20315;-85
2022/04/09 04:27:45;;;;;;;15.73;11.25;;;1.80;99.90;;;;;;5096608;28;20212;-84
2022/04/09 04:30:12;;;;;;;18.92;11.40;;;1.80;99.90;;;;;;5096344;28;20214;-84
2022/04/09 04:32:38;;;;;;;23.10;13.65;;;1.70;99.90;;;;;;5096350;28;20686;-84
2022/04/09 04:35:06;;;;;;;17.23;11.30;;;1.70;99.90;;;;;;5096187;28;20216;-85
2022/04/09 04:37:37;;;;;;;20.48;13.05;;;1.70;99.90;;;;;;5096517;28;20272;-84
2022/04/09 04:40:07;;;;;;;15.45;12.52;;;1.70;99.90;;;;;;5096308;28;20186;-85
2022/04/09 04:42:33;;;;;;;18.30;12.45;;;1.60;99.90;;;;;;5096870;28;20575;-84
2022/04/09 04:45:00;;;;;;;15.88;13.65;;;1.60;99.90;;;;;;5096270;28;20633;-84
2022/04/09 04:47:27;;;;;;;19.67;14.02;;;1.60;99.90;;;;;;5096886;28;20575;-84
2022/04/09 04:49:54;;;;;;;16.00;11.63;;;1.60;99.90;;;;;;5096282;28;20205;-84
2022/04/09 04:52:20;;;;;;;19.25;12.73;;;1.60;99.90;;;;;;5096657;28;20222;-85
2022/04/09 04:54:47;;;;;;;20.50;12.38;;;1.60;99.90;;;;;;5096473;28;20207;-84
2022/04/09 04:57:15;;;;;;;17.60;11.93;;;1.50;99.90;;;;;;5096295;28;20232;-84
2022/04/09 04:59:42;;;;;;;20.00;14.60;;;1.60;99.90;;;;;;5095833;28;20685;-84
2022/04/09 05:02:08;;;;;;;13.20;7.35;;;1.50;99.90;;;;;;5095959;28;20205;-84
2022/04/09 05:04:35;;;;;;;19.40;13.80;;;1.50;99.90;;;;;;5096191;28;20281;-83
2022/04/09 05:07:02;;;;;;;21.45;12.55;;;1.60;99.90;;;;;;5095604;28;20224;-84
2022/04/09 05:09:28;;;;;;;20.55;12.30;;;1.60;99.90;;;;;;5095951;28;20561;-85
2022/04/09 05:11:55;;;;;;;21.88;14.35;;;1.60;99.90;;;;;;5095772;28;20205;-84
2022/04/09 05:14:23;;;;;;;13.25;10.45;;;1.60;99.90;;;;;;5096460;28;20210;-84
2022/04/09 05:16:50;;;;;;;17.08;10.32;;;1.60;99.90;;;;;;5096792;28;20243;-84
2022/04/09 05:19:17;;;;;;;15.18;12.32;;;1.60;99.90;;;;;;5109953;28;20188;-85
2022/04/09 05:21:47;;;;;;;18.95;11.35;;;1.60;99.90;;;;;;5117233;28;20200;-84
2022/04/09 05:24:14;;;;;;;15.43;11.45;;;1.60;99.90;;;;;;5104956;28;20260;-85
2022/04/09 05:26:43;;;;;;;18.08;11.10;;;1.60;99.90;;;;;;5096185;28;20241;-85
2022/04/09 05:29:10;;;;;;;17.83;11.85;;;1.60;99.90;;;;;;5097985;28;20220;-85
2022/04/09 05:31:38;;;;;;;15.98;11.35;;;1.60;99.90;;;;;;5096585;28;20625;-84
2022/04/09 05:34:06;;;;;;;19.38;13.75;;;1.70;99.90;;;;;;5095883;28;20189;-85
2022/04/09 05:36:33;;;;;;;22.58;12.23;;;1.70;99.90;;;;;;5095606;28;20233;-85
2022/04/09 05:38:59;;;;;;;20.35;12.80;;;1.70;99.90;;;;;;5095767;28;20200;-84
2022/04/09 05:41:27;;;;;;;18.77;13.02;;;1.70;99.90;;;;;;5095956;28;20211;-84
2022/04/09 05:43:54;;;;;;;19.00;13.43;;;1.80;99.90;;;;;;5099259;28;20218;-84
2022/04/09 05:46:22;;;;;;;21.42;14.88;;;1.80;99.90;;;;;;5099809;28;20236;-84
2022/04/09 05:48:50;;;;;;;17.08;12.13;;;1.80;99.90;;;;;;5099745;28;20205;-84
2022/04/09 05:51:17;;;;;;;19.85;13.93;;;1.80;99.90;;;;;;5099202;28;20212;-83
2022/04/09 05:53:43;;;;;;;17.15;12.65;;;1.90;99.90;;;;;;5099170;28;20216;-84
2022/04/09 05:56:10;;;;;;;21.05;12.98;;;1.90;99.90;;;;;;5098628;28;20224;-83
2022/04/09 05:58:39;;;;;;;23.08;13.50;;;1.90;99.90;;;;;;5099147;28;20207;-84
2022/04/09 06:01:06;;;;;;;15.48;13.00;;;1.90;99.90;;;;;;5099208;28;20248;-84
2022/04/09 06:03:33;;;;;;;20.13;12.43;;;1.90;99.90;;;;;;5099366;28;20207;-83
2022/04/09 06:06:01;;;;;;;16.75;12.23;;;1.90;99.90;;;;;;5099048;28;20257;-83
2022/04/09 06:08:28;;;;;;;17.50;10.63;;;2.00;99.90;;;;;;5099962;28;20560;-83
2022/04/09 06:10:55;;;;;;;18.35;12.15;;;2.10;99.90;;;;;;5100424;28;20284;-84
2022/04/09 06:13:21;;;;;;;20.88;13.02;;;2.10;99.90;;;;;;5100458;28;20215;-84
2022/04/09 06:15:48;;;;;;;12.18;10.02;;;2.30;99.90;;;;;;5100669;28;20220;-83
2022/04/09 06:18:15;;;;;;;14.85;11.18;;;2.20;99.90;;;;;;5099410;28;20212;-85
2022/04/09 06:20:41;;;;;;;15.00;11.00;;;2.20;99.90;;;;;;5098324;28;20232;-84
2022/04/09 06:23:10;;;;;;;15.98;12.05;;;2.20;99.90;;;;;;5098677;28;20208;-83
2022/04/09 06:25:36;;;;;;;17.98;10.68;;;2.30;99.90;;;;;;5098044;28;20236;-83
2022/04/09 06:28:04;;;;;;;17.00;11.52;;;2.30;99.90;;;;;;5098620;28;20212;-83
2022/04/09 06:30:30;;;;;;;12.30;10.40;;;2.40;99.90;;;;;;5098726;28;20206;-83
2022/04/09 06:32:57;;;;;;;16.30;11.35;;;2.40;99.90;;;;;;5098223;28;20209;-83
2022/04/09 06:35:25;;;;;;;16.35;12.07;;;2.40;99.90;;;;;;5097968;28;20255;-83
2022/04/09 06:37:52;;;;;;;16.60;11.18;;;2.40;99.90;;;;;;5098583;28;20228;-83
2022/04/09 06:40:20;;;;;;;18.20;11.18;;;2.50;99.90;;;;;;5098223;28;20206;-83
2022/04/09 06:42:47;;;;;;;18.75;10.57;;;2.70;99.90;;;;;;5098666;28;20258;-83
2022/04/09 06:45:15;;;;;;;18.80;11.48;;;2.70;99.90;;;;;;5098411;28;20230;-83
2022/04/09 06:47:41;;;;;;;16.65;13.40;;;2.80;99.90;;;;;;5098527;28;20219;-84
2022/04/09 06:50:09;;;;;;;12.30;9.93;;;2.60;99.90;;;;;;5098047;28;20205;-83
2022/04/09 06:52:36;;;;;;;18.42;10.80;;;2.80;99.90;;;;;;5098245;28;20207;-83
2022/04/09 06:55:03;;;;;;;13.02;10.32;;;2.70;99.90;;;;;;5098518;28;20233;-83
2022/04/09 06:57:32;;;;;;;16.48;11.60;;;2.70;99.90;;;;;;5098571;28;20204;-84
2022/04/09 07:00:00;;;;;;;15.18;10.68;;;2.80;99.90;;;;;;5098688;28;20235;-84
2022/04/09 07:02:27;;;;;;;13.68;9.85;;;2.80;99.90;;;;;;5097888;28;20209;-83
2022/04/09 07:04:54;;;;;;;13.10;9.73;;;2.70;99.90;;;;;;5098401;28;20215;-83
2022/04/09 07:07:21;;;;;;;13.88;11.30;;;2.90;99.90;;;;;;5098214;28;20213;-82
2022/04/09 07:09:48;;;;;;;14.70;10.73;;;3.00;99.90;;;;;;5097982;28;20232;-81
2022/04/09 07:12:15;;;;;;;15.48;12.02;;;3.00;99.90;;;;;;5097408;28;20204;-82
2022/04/09 07:14:43;;;;;;;17.10;13.20;;;3.20;99.90;;;;;;5097627;28;20210;-83
2022/04/09 07:17:10;;;;;;;17.40;11.43;;;3.20;99.90;;;;;;5096936;28;20235;-84
2022/04/09 07:19:38;;;;;;;11.93;7.95;;;3.30;99.90;;;;;;5097027;28;20247;-83
2022/04/09 07:22:05;;;;;;;14.55;9.73;;;3.20;99.90;;;;;;5097398;28;20200;-83
2022/04/09 07:24:32;;;;;;;12.45;9.90;;;3.30;99.90;;;;;;5097364;28;20241;-85
2022/04/09 07:26:59;;;;;;;14.13;9.15;;;3.20;99.90;;;;;;5096630;28;20232;-82
2022/04/09 07:29:25;;;;;;;16.20;10.75;;;3.40;99.90;;;;;;5097053;28;20205;-82
2022/04/09 07:31:53;;;;;;;13.63;10.02;;;3.50;99.90;;;;;;5096692;28;20208;-84
2022/04/09 07:34:20;;;;;;;10.18;6.90;;;3.40;99.90;;;;;;5096531;28;20204;-83
2022/04/09 07:36:47;;;;;;;9.93;7.20;;;3.40;99.90;;;;;;5096250;28;20232;-83
2022/04/09 07:39:14;;;;;;;8.20;7.35;;;3.50;99.90;;;;;;5097321;28;20208;-83
2022/04/09 07:41:41;;;;;;;9.80;8.45;;;3.40;99.90;;;;;;5097746;28;20208;-84
2022/04/09 07:44:08;;;;;;;11.85;7.75;;;3.50;99.90;;;;;;5096751;28;20192;-84
2022/04/09 07:46:34;;;;;;;11.52;7.35;;;3.60;99.90;;;;;;5096296;28;20236;-83
2022/04/09 07:49:02;;;;;;;9.63;8.35;;;3.70;99.90;;;;;;5097496;28;20233;-84
2022/04/09 07:51:29;;;;;;;10.02;7.43;;;3.70;99.90;;;;;;5096879;28;20219;-84
2022/04/09 07:53:56;;;;;;;11.25;7.18;;;3.60;99.90;;;;;;5097436;28;20208;-83
2022/04/09 07:56:22;;;;;;;9.85;7.22;;;3.60;99.90;;;;;;5076477;28;20216;-83
2022/04/09 07:58:49;;;;;;;11.25;7.00;;;3.70;99.90;;;;;;5076312;28;20294;-83
2022/04/09 08:01:16;;;;;;;8.60;7.45;;;3.60;99.90;;;;;;5089532;28;20226;-83
2022/04/09 08:03:43;;;;;;;9.73;8.65;;;3.60;99.90;;;;;;5095951;28;20208;-83
2022/04/09 08:06:11;;;;;;;10.23;7.15;;;3.80;99.90;;;;;;5074776;28;20229;-82
2022/04/09 08:08:37;;;;;;;7.28;6.65;;;3.80;99.90;;;;;;5090026;28;20201;-83
2022/04/09 08:11:05;;;;;;;7.10;6.30;;;3.80;99.90;;;;;;5095306;28;20269;-83
2022/04/09 08:13:32;;;;;;;5.53;5.03;;;3.90;99.90;;;;;;5096600;28;20208;-84
2022/04/09 08:15:58;;;;;;;7.10;5.95;;;3.80;99.90;;;;;;5095808;28;20212;-83
2022/04/09 08:18:25;;;;;;;6.47;5.07;;;3.90;99.90;;;;;;5096219;28;20561;-84
2022/04/09 08:20:53;;;;;;;9.77;5.47;;;4.10;99.90;;;;;;5096340;28;20550;-84
2022/04/09 08:23:21;;;;;;;7.53;6.82;;;4.10;99.90;;;;;;5096017;28;20201;-85
2022/04/09 08:25:48;;;;;;;6.95;5.38;;;4.10;99.90;;;;;;5096292;28;20223;-85
2022/04/09 08:28:14;;;;;;;7.22;6.03;;;4.10;99.90;;;;;;5098267;28;20208;-84
2022/04/09 08:30:41;;;;;;;8.50;7.75;;;4.10;99.90;;;;;;5099406;28;20683;-82
2022/04/09 08:33:10;;;;;;;9.60;4.65;;;4.30;99.90;;;;;;5100050;28;20196;-81
2022/04/09 08:35:37;;;;;;;6.85;5.50;;;4.10;99.90;;;;;;5100637;28;20698;-81
2022/04/09 08:38:04;;;;;;;6.20;5.70;;;4.00;99.90;;;;;;5100118;28;20576;-81
2022/04/09 08:40:36;;;;;;;5.88;4.45;;;3.90;99.90;;;;;;5100041;28;20236;-81
2022/04/09 08:43:04;;;;;;;5.40;4.88;;;3.80;99.90;;;;;;5100117;28;20208;-81
2022/04/09 08:45:36;;;;;;;14.45;6.65;;;3.70;99.90;;;;;;5099820;28;20598;-81
2022/04/09 08:48:05;;;;;;;9.02;5.65;;;3.70;99.90;;;;;;5100131;28;20223;-81
2022/04/09 08:50:32;;;;;;;5.35;4.90;;;3.70;99.90;;;;;;5099365;28;20209;-81
2022/04/09 08:53:05;;;;;;;6.38;5.78;;;3.70;99.90;;;;;;5099876;28;20200;-81
2022/04/09 08:55:34;;;;;;;8.13;5.38;;;3.80;99.90;;;;;;5100353;28;20248;-81
2022/04/09 08:58:00;;;;;;;7.53;4.88;;;3.90;99.90;;;;;;5100459;28;20239;-81
2022/04/09 09:00:27;;;;;;;3.58;3.22;;;3.70;99.90;;;;;;5100163;28;20204;-81
2022/04/09 09:02:57;;;;;;;5.65;5.07;;;3.70;99.90;;;;;;5100773;28;20234;-81
2022/04/09 09:05:31;;;;;;;4.05;3.70;;;3.70;99.90;;;;;;5100649;28;20770;-81
2022/04/09 09:07:59;;;;;;;4.60;4.20;;;3.80;99.90;;;;;;5100413;28;20210;-81
2022/04/09 09:10:25;;;;;;;7.22;5.00;;;3.90;99.90;;;;;;5099917;28;20204;-79
2022/04/09 09:13:03;;;;;;;4.68;4.32;;;4.00;99.90;;;;;;5111286;28;20305;-80
2022/04/09 09:15:31;;;;;;;7.07;4.35;;;4.10;99.90;;;;;;5112463;28;20220;-79
2022/04/09 09:17:58;;;;;;;5.75;3.92;;;3.90;99.90;;;;;;5102028;28;20270;-81
2022/04/09 09:20:26;;;;;;;11.10;6.10;;;4.00;99.90;;;;;;5100551;28;20204;-81
2022/04/09 09:22:54;;;;;;;5.60;4.75;;;4.10;99.90;;;;;;5101492;28;20211;-80
2022/04/09 09:25:21;;;;;;;6.30;4.65;;;4.10;99.90;;;;;;5101617;28;20220;-81
2022/04/09 09:27:57;;;;;;;7.32;6.65;;;4.20;99.90;;;;;;5100919;28;20223;-80
2022/04/09 09:30:25;;;;;;;5.82;4.57;;;4.40;99.90;;;;;;5101652;28;20207;-81
2022/04/09 09:33:08;;;;;;;6.72;4.75;;;4.60;99.90;;;;;;5102521;28;20219;-83
2022/04/09 09:35:49;;;;;;;8.77;5.10;;;4.60;99.90;;;;;;5133962;22;20236;-79
2022/04/09 09:38:20;;;;;;;4.43;3.88;;;4.50;99.90;;;;;;5071976;28;20612;-80
2022/04/09 09:40:47;;;;;;;4.53;2.83;;;4.60;99.90;;;;;;5071790;28;20201;-78
2022/04/09 09:43:15;;;;;;;6.43;4.90;;;4.70;99.90;;;;;;5072252;28;20273;-79
2022/04/09 09:45:43;;;;;;;6.75;6.15;;;5.00;99.90;;;;;;5071976;28;20895;-78
2022/04/09 09:48:20;;;;;;;7.85;4.50;;;5.10;99.90;;;;;;5074694;28;20230;-79
2022/04/09 09:50:47;;;;;;;4.10;3.70;;;5.30;99.90;;;;;;5075281;28;20207;-80
2022/04/09 09:53:14;;;;;;;6.13;4.05;;;5.30;99.90;;;;;;5075434;28;20212;-79
2022/04/09 09:55:44;;;;;;;6.22;4.63;;;5.50;99.90;;;;;;5076483;28;20216;-79
2022/04/09 09:58:15;;;;;;;5.65;3.70;;;5.50;99.90;;;;;;5073228;28;20197;-79
2022/04/09 10:00:43;;;;;;;4.70;3.00;;;5.30;99.90;;;;;;5072748;28;20212;-79
2022/04/09 10:03:13;;;;;;;5.38;3.55;;;5.10;99.90;;;;;;5073199;28;20690;-79
2022/04/09 10:05:40;;;;;;;3.53;3.22;;;5.20;99.90;;;;;;5072476;28;20197;-80
2022/04/09 10:08:08;;;;;;;7.65;3.42;;;5.20;99.90;;;;;;5073693;28;20270;-79
2022/04/09 10:10:36;;;;;;;9.60;3.90;;;5.20;99.90;;;;;;5073306;28;20231;-79
2022/04/09 10:13:03;;;;;;;3.50;2.58;;;5.00;99.90;;;;;;5073641;28;20251;-80
2022/04/09 10:15:32;;;;;;;3.33;2.80;;;5.00;99.90;;;;;;5073353;28;20767;-79
2022/04/09 10:18:01;;;;;;;6.45;2.30;;;4.90;99.90;;;;;;5073825;28;20234;-79
2022/04/09 10:20:30;;;;;;;2.70;2.50;;;5.00;99.90;;;;;;5076983;28;20216;-79
2022/04/09 10:22:59;;;;;;;4.45;3.08;;;5.00;99.90;;;;;;5075822;28;20698;-78
2022/04/09 10:25:28;;;;;;;3.08;2.78;;;4.90;99.90;;;;;;5079368;28;20572;-79
2022/04/09 10:28:00;;;;;;;4.70;4.30;;;5.00;99.90;;;;;;5081505;28;20220;-78
2022/04/09 10:30:28;;;;;;;3.30;2.17;;;5.20;99.90;;;;;;5080293;28;20205;-79
2022/04/09 10:32:57;;;;;;;3.97;3.53;;;5.00;99.90;;;;;;5076740;28;20204;-79
2022/04/09 10:35:30;;;;;;;5.25;3.55;;;5.00;99.90;;;;;;5077617;28;20704;-78
2022/04/09 10:38:17;;;;;;;3.15;2.88;;;5.10;99.90;;;;;;5077690;28;20197;-79
2022/04/09 10:41:27;;;;;;;3.05;2.67;;;5.00;99.90;;;;;;5073481;28;20224;-79
2022/04/09 10:43:57;;;;;;;4.82;2.63;;;5.00;99.90;;;;;;5074693;28;20335;-80
2022/04/09 10:46:31;;;;;;;6.00;3.53;;;5.10;99.90;;;;;;5063123;28;20226;-79
2022/04/09 10:49:19;;;;;;;4.50;3.60;;;5.40;99.90;;;;;;5069359;28;20196;-79
2022/04/09 10:52:15;;;;;;;4.68;2.40;;;5.60;99.90;;;;;;5068815;28;20546;-79
2022/04/09 10:54:58;;;;;;;3.65;2.40;;;5.80;99.90;;;;;;5029898;28;20208;-79
2022/04/09 10:57:25;;;;;;;2.80;2.60;;;5.60;99.90;;;;;;5064540;28;20217;-79
2022/04/09 10:59:57;;;;;;;5.53;2.75;;;5.70;99.90;;;;;;5068973;28;20195;-79
2022/04/09 11:02:25;;;;;;;2.53;2.28;;;5.90;99.90;;;;;;5066906;28;20194;-79
2022/04/09 11:04:52;;;;;;;4.60;3.17;;;6.10;99.90;;;;;;5072610;28;20217;-79
2022/04/09 11:07:21;;;;;;;3.38;2.80;;;6.10;99.90;;;;;;5080455;28;20361;-79
2022/04/09 11:09:53;;;;;;;3.20;2.80;;;6.30;99.90;;;;;;5079348;28;20670;-80
2022/04/09 11:12:24;;;;;;;3.38;2.78;;;6.60;99.90;;;;;;5080327;28;20235;-80
2022/04/09 11:14:54;;;;;;;3.88;2.33;;;6.90;99.90;;;;;;5069791;28;20198;-79
2022/04/09 11:17:25;;;;;;;6.32;2.90;;;7.10;99.90;;;;;;5068879;28;20214;-79
2022/04/09 11:19:53;;;;;;;3.90;2.30;;;7.00;99.90;;;;;;5070405;28;20394;-79
2022/04/09 11:22:21;;;;;;;4.47;4.18;;;7.10;99.90;;;;;;5061949;28;20206;-79
2022/04/09 11:24:48;;;;;;;3.70;2.67;;;7.30;99.90;;;;;;5062103;28;20228;-79
2022/04/09 11:27:15;;;;;;;5.28;2.20;;;7.70;99.90;;;;;;5061723;28;20225;-79
2022/04/09 11:29:43;;;;;;;4.85;2.58;;;7.90;99.90;;;;;;5075371;28;20196;-79
2022/04/09 11:32:19;;;;;;;2.28;2.17;;;7.90;99.90;;;;;;5077812;28;20201;-79
2022/04/09 11:34:50;;;;;;;3.25;2.55;;;8.10;99.90;;;;;;5073056;28;20287;-80
2022/04/09 11:37:17;;;;;;;2.92;2.58;;;7.80;99.80;;;;;;5073021;28;20221;-80
2022/04/09 11:39:46;;;;;;;3.00;2.55;;;7.80;99.90;;;;;;5076396;28;20586;-80
2022/04/09 11:42:13;;;;;;;3.88;2.08;;;8.30;99.90;;;;;;5075759;28;20205;-81
2022/04/09 11:44:40;;;;;;;4.13;2.60;;;8.70;99.90;;;;;;5077632;28;20208;-81
2022/04/09 11:47:13;;;;;;;5.25;2.33;;;8.50;98.30;;;;;;5076614;28;20275;-82
2022/04/09 11:49:40;;;;;;;3.65;2.70;;;8.60;99.90;;;;;;5076185;28;20303;-80
2022/04/09 11:52:08;;;;;;;3.63;2.30;;;8.40;99.10;;;;;;5074991;28;20201;-79
2022/04/09 11:54:38;;;;;;;3.15;1.85;;;8.40;98.60;;;;;;5073742;28;20212;-79
2022/04/09 11:57:11;;;;;;;5.05;3.00;;;8.10;99.20;;;;;;5073769;28;20221;-79
2022/04/09 11:59:38;;;;;;;2.63;2.30;;;8.30;98.30;;;;;;5073398;28;20292;-78
2022/04/09 12:02:15;;;;;;;5.50;2.80;;;8.40;98.60;;;;;;5073068;28;20205;-78
2022/04/09 12:04:42;;;;;;;2.58;2.40;;;8.70;98.60;;;;;;5072929;28;20266;-77
2022/04/09 12:07:09;;;;;;;4.90;2.47;;;8.70;97.10;;;;;;5072486;28;20270;-77
2022/04/09 12:09:36;;;;;;;2.55;2.45;;;8.00;95.30;;;;;;5072667;28;20205;-77
2022/04/09 12:12:03;;;;;;;2.95;2.75;;;7.20;95.80;;;;;;5072701;28;20205;-77
2022/04/09 12:14:31;;;;;;;3.25;2.60;;;6.80;96.60;;;;;;5072843;28;20209;-77
2022/04/09 12:17:09;;;;;;;3.90;2.65;;;6.60;96.80;;;;;;5072146;28;20651;-77
2022/04/09 12:19:35;;;;;;;2.60;2.42;;;6.40;97.10;;;;;;5072947;28;20262;-78
2022/04/09 12:22:19;;;;;;;2.70;2.50;;;6.30;97.30;;;;;;5068550;28;20201;-78
2022/04/09 12:24:50;;;;;;;3.47;2.75;;;6.80;98.30;;;;;;5072757;28;20219;-78
2022/04/09 12:27:17;;;;;;;2.63;1.95;;;7.10;98.00;;;;;;5072589;28;20694;-78
2022/04/09 12:29:53;;;;;;;3.58;2.88;;;6.80;96.80;;;;;;5072872;28;20627;-78
2022/04/09 12:32:24;;;;;;;4.35;2.65;;;7.10;97.40;;;;;;5071687;28;20205;-78
2022/04/09 12:34:56;;;;;;;4.90;2.88;;;7.70;98.10;;;;;;5072888;28;20240;-77
2022/04/09 12:37:23;;;;;;;2.72;2.53;;;8.10;96.00;;;;;;5071863;28;20786;-78
2022/04/09 12:39:50;;;;;;;5.40;5.00;;;8.20;96.60;;;;;;5072307;28;20741;-78
2022/04/09 12:42:17;;;;;;;2.92;2.10;;;8.30;95.00;;;;;;5072123;28;20258;-78
2022/04/09 12:44:44;;;;;;;2.03;1.83;;;8.40;92.80;;;;;;5072496;28;20290;-78
2022/04/09 12:47:21;;;;;;;3.05;1.65;;;8.80;93.30;;;;;;5072330;28;20247;-78
2022/04/09 12:49:47;;;;;;;3.80;2.45;;;9.10;93.20;;;;;;5072914;28;20209;-78
2022/04/09 12:52:14;;;;;;;2.33;2.13;;;8.80;92.00;;;;;;5072594;28;20207;-79
2022/04/09 12:54:41;;;;;;;6.05;2.80;;;9.30;93.40;;;;;;5072064;28;20205;-80
2022/04/09 12:57:09;;;;;;;2.10;1.90;;;9.30;92.20;;;;;;5074148;28;20222;-80
2022/04/09 12:59:36;;;;;;;3.55;2.35;;;9.20;92.20;;;;;;5074409;28;20204;-80
2022/04/09 13:02:04;;;;;;;3.97;2.38;;;8.80;93.20;;;;;;5073629;28;20637;-80
2022/04/09 13:04:32;;;;;;;4.55;2.35;;;8.80;94.80;;;;;;5075607;28;20209;-81
2022/04/09 13:06:59;;;;;;;3.85;2.45;;;8.90;93.20;;;;;;5077547;28;20228;-81
2022/04/09 13:09:26;;;;;;;3.25;2.95;;;9.20;93.00;;;;;;5078042;28;20674;-81
2022/04/09 13:11:54;;;;;;;5.35;2.90;;;9.10;92.70;;;;;;5077627;28;20630;-81
2022/04/09 13:14:20;;;;;;;3.85;2.75;;;9.00;92.60;;;;;;5078316;28;20228;-81
2022/04/09 13:16:48;;;;;;;2.47;1.75;;;9.70;92.80;;;;;;5077184;28;20226;-80
2022/04/09 13:19:14;;;;;;;2.40;2.20;;;10.50;90.00;;;;;;5078016;28;20205;-81
2022/04/09 13:21:42;;;;;;;2.33;2.10;;;10.90;88.00;;;;;;5077737;28;20830;-81
2022/04/09 13:24:09;;;;;;;2.73;2.53;;;11.80;91.70;;;;;;5078032;28;20482;-80
2022/04/09 13:26:36;;;;;;;2.53;1.63;;;11.40;83.70;;;;;;5078177;28;20469;-81
2022/04/09 13:29:03;;;;;;;4.40;2.50;;;10.80;83.20;;;;;;5077392;28;20603;-81
2022/04/09 13:31:31;;;;;;;2.53;2.13;;;10.80;87.50;;;;;;5077454;28;20215;-81
2022/04/09 13:34:00;;;;;;;2.60;1.80;;;11.50;83.20;;;;;;5077866;28;20949;-81
2022/04/09 13:36:27;;;;;;;4.70;3.43;;;11.80;79.70;;;;;;5077204;28;20509;-81
2022/04/09 13:38:55;;;;;;;2.45;1.70;;;11.40;79.60;;;;;;5077410;28;20446;-81
2022/04/09 13:41:26;;;;;;;4.13;2.33;;;11.20;79.30;;;;;;5076419;28;20202;-80